Latest Weather Observations for Hervey Bay

IDQ60801

Issued at 10:32 pm EST Monday 23 January 2017 (issued every 30 minutes, with the page automatically refreshed every 10 minutes)

About weather observations | Map of weather stations | Latest weather observations for QLD | Other Formats
Station Details ID: 040405 Name: HERVEY BAY AIRPORT Lat: -25.32 Lon: 152.88 Height: 12.98 m
Data from the previous 72 hours. | See also: Recent months at Hervey Bay
Date/Time
EST
Temp
°C
App
Temp
°C
Dew
Point
°C
Rel
Hum
%
Delta-T
°C
Wind Press
QNH
hPa
Press
MSL
hPa
Rain since
9am
mm
Dir  Spd
km/h
Gust
km/h
Spd
kts
Gust
kts
23/10:00pm 26.1 26.1 17.2 58 5.5 E 13 19 7 10 1016.3 1016.2 0.0
23/09:30pm 26.0 25.6 17.1 58 5.5 E 15 19 8 10 1016.2 1016.1 0.0
23/09:00pm 25.7 24.5 16.0 55 5.9 E 17 24 9 13 1016.1 1016.0 0.0
23/08:30pm 26.2 25.5 17.3 58 5.6 E 17 22 9 12 1016.0 1015.9 0.0
23/08:00pm 26.4 25.5 17.7 58 5.5 ESE 19 24 10 13 1015.7 1015.6 0.0
23/07:30pm 26.4 26.2 17.5 58 5.6 ESE 15 22 8 12 1015.3 1015.2 0.0
23/07:00pm 26.4 24.9 16.3 53 6.2 ESE 19 24 10 13 1015.1 1015.0 0.0
23/06:30pm 26.7 25.0 16.3 53 6.4 ESE 20 28 11 15 1015.0 1014.9 0.0
23/06:00pm 26.6 25.4 17.4 57 5.8 ESE 20 28 11 15 1014.5 1014.4 0.0
23/05:30pm 27.1 25.7 17.0 54 6.3 ESE 20 32 11 17 1014.0 1013.9 0.0
23/05:00pm 28.5 27.3 17.4 51 7.0 ESE 20 28 11 15 1013.6 1013.5 0.0
23/04:30pm 28.7 27.1 16.6 48 7.5 SE 20 30 11 16 1013.2 1013.1 0.0
23/04:00pm 29.3 26.8 17.2 48 7.6 ESE 26 33 14 18 1013.1 1013.0 0.0
23/03:30pm 29.5 27.1 16.3 45 8.2 ESE 24 32 13 17 1013.2 1013.1 0.0
23/03:00pm 30.1 27.0 14.6 39 9.4 ESE 24 32 13 17 1013.3 1013.2 0.0
23/02:30pm 30.0 26.9 14.5 38 9.4 ESE 24 37 13 20 1013.4 1013.3 0.0
23/02:00pm 30.7 28.1 14.8 38 9.7 ESE 22 33 12 18 1013.7 1013.6 0.0
23/01:30pm 30.8 28.0 14.4 36 10.0 E 22 32 12 17 1013.8 1013.7 0.0
23/01:00pm 30.2 27.7 15.1 40 9.3 ESE 22 32 12 17 1014.1 1014.0 0.0
23/12:30pm 30.2 27.9 14.7 39 9.4 ESE 20 32 11 17 1014.5 1014.4 0.0
23/12:00pm 30.2 27.9 14.7 39 9.4 ESE 20 32 11 17 1014.8 1014.7 0.0
23/11:30am 30.1 27.6 14.2 38 9.6 E 20 28 11 15 1015.1 1015.0 0.0
23/11:00am 29.4 27.0 14.4 40 9.1 ESE 20 28 11 15 1015.4 1015.3 0.0
23/10:30am 29.0 26.9 15.2 43 8.4 ESE 20 32 11 17 1015.5 1015.4 0.0
23/10:00am 28.7 26.1 14.9 43 8.4 ESE 22 30 12 16 1015.8 1015.7 0.0
23/09:30am 29.1 27.3 15.6 44 8.3 ESE 19 32 10 17 1015.9 1015.8 0.0
23/09:00am 28.5 26.3 14.3 41 8.5 SE 19 28 10 15 1016.0 1015.9 0.0
23/08:30am 28.0 27.4 15.6 46 7.6 SE 13 20 7 11 1015.7 1015.6 0.0
23/08:00am 26.8 27.1 17.0 55 6.1 SSE 11 20 6 11 1015.6 1015.5 0.0
23/07:30am 25.5 26.1 17.7 62 4.9 SSW 11 17 6 9 1015.4 1015.3 0.0
23/07:00am 23.2 23.1 17.0 68 3.8 SSW 13 17 7 9 1015.3 1015.2 0.0
23/06:30am 22.2 22.8 16.9 72 3.2 SSW 9 15 5 8 1015.2 1015.1 0.0
23/06:00am 20.7 21.4 17.1 80 2.2 SW 9 11 5 6 1014.8 1014.7 0.0
23/05:30am 19.4 19.8 16.4 83 1.8 SSW 9 13 5 7 1014.4 1014.3 0.0
23/05:00am 19.4 19.4 16.2 82 1.9 SSW 11 13 6 7 1013.9 1013.8 0.0
23/04:30am 19.6 20.1 16.6 83 1.8 SW 9 11 5 6 1013.6 1013.5 0.0
23/04:00am 19.8 20.6 16.4 81 2.0 SW 7 9 4 5 1013.6 1013.5 0.0
23/03:30am 20.6 21.5 16.6 78 2.4 SW 7 9 4 5 1013.5 1013.4 0.0
23/03:00am 20.6 21.3 17.0 80 2.2 SSW 9 13 5 7 1013.5 1013.4 0.0
23/02:30am 20.0 20.5 16.6 81 2.1 SW 9 13 5 7 1013.7 1013.6 0.0
23/02:00am 20.4 21.0 16.8 80 2.2 SW 9 11 5 6 1013.8 1013.7 0.0
23/01:30am 22.1 23.2 17.0 73 3.1 S 7 9 4 5 1014.0 1013.9 0.0
23/01:00am 23.1 23.9 17.3 70 3.6 SSE 9 13 5 7 1014.2 1014.1 0.0
23/12:30am 23.3 24.1 17.3 69 3.7 SSE 9 13 5 7 1014.5 1014.4 0.0
23/12:00am 23.6 24.5 17.6 69 3.7 SE 9 13 5 7 1014.6 1014.5 0.0
 
Date/Time
EST
Temp
°C
App
Temp
°C
Dew
Point
°C
Rel
Hum
%
Delta-T
°C
Wind Press
QNH
hPa
Press
MSL
hPa
Rain since
9am
mm
Dir  Spd
km/h
Gust
km/h
Spd
kts
Gust
kts
22/11:30pm 23.8 24.3 17.5 68 3.9 SSE 11 15 6 8 1014.7 1014.6 0.0
22/11:00pm 24.2 24.3 17.4 65 4.2 SSE 13 19 7 10 1015.0 1014.9 0.0
22/10:30pm 24.5 24.3 16.7 61 4.8 SE 13 22 7 12 1015.2 1015.1 0.0
22/10:00pm 24.9 24.3 16.6 60 5.1 SE 15 22 8 12 1015.3 1015.2 0.0
22/09:30pm 25.3 24.7 16.7 59 5.3 SE 15 22 8 12 1015.3 1015.2 0.0
22/09:00pm 25.4 24.4 16.5 58 5.5 SE 17 28 9 15 1015.0 1014.9 0.0
22/08:30pm 25.4 25.4 17.3 61 5.0 SE 13 22 7 12 1015.0 1014.9 0.0
22/08:00pm 25.5 24.4 17.4 61 5.1 SE 19 32 10 17 1014.7 1014.6 0.0
22/07:30pm 25.5 24.7 17.9 63 4.8 SE 19 28 10 15 1014.6 1014.5 0.0
22/07:00pm 25.5 24.8 17.4 61 5.1 SSE 17 28 9 15 1014.5 1014.4 0.0
22/06:30pm 25.7 24.7 17.6 61 5.1 SE 19 32 10 17 1014.2 1014.1 0.0
22/06:00pm 25.9 25.1 17.0 58 5.5 SE 17 28 9 15 1013.8 1013.7 0.0
22/05:30pm 26.4 25.4 16.6 55 6.1 SE 17 28 9 15 1013.6 1013.5 0.0
22/05:00pm 26.5 25.1 17.0 56 5.9 SE 20 32 11 17 1013.5 1013.4 0.0
22/04:30pm 26.6 25.2 17.1 56 5.9 SE 20 30 11 16 1013.3 1013.2 0.0
22/04:00pm 27.2 26.5 17.4 55 6.2 SE 17 30 9 16 1013.1 1013.0 0.0
22/03:30pm 27.5 25.9 17.4 54 6.3 SE 22 33 12 18 1013.2 1013.1 0.0
22/03:00pm 28.0 26.4 16.6 50 7.1 SE 20 33 11 18 1013.5 1013.4 0.0
22/02:30pm 28.5 27.0 16.7 48 7.4 SE 20 32 11 17 1013.6 1013.5 0.0
22/02:00pm 27.9 25.9 17.4 52 6.6 ESE 24 33 13 18 1013.9 1013.8 0.0
22/01:30pm 28.0 26.8 18.4 56 6.1 ESE 22 33 12 18 1014.0 1013.9 0.0
22/01:00pm 27.0 25.9 18.6 60 5.4 SE 22 32 12 17 1014.2 1014.1 0.0
22/12:30pm 28.5 27.1 18.0 53 6.7 SE 22 37 12 20 1014.3 1014.2 0.0
22/12:00pm 27.2 26.3 19.0 61 5.3 SE 22 35 12 19 1014.6 1014.5 0.0
22/11:30am 28.0 27.2 18.4 56 6.1 SE 20 35 11 19 1014.9 1014.8 0.0
22/11:00am 27.3 26.4 18.3 58 5.7 SE 20 35 11 19 1015.1 1015.0 0.0
22/10:30am 26.8 26.3 18.6 60 5.2 SE 19 32 10 17 1015.2 1015.1 0.0
22/10:00am 26.9 26.2 18.7 60 5.2 SE 20 30 11 16 1015.0 1014.9 0.0
22/09:30am 26.8 26.3 19.2 63 4.9 SE 20 33 11 18 1014.9 1014.8 0.0
22/09:00am 26.1 25.9 19.7 68 4.1 SE 20 32 11 17 1014.8 1014.7 0.8
22/08:30am 25.8 25.8 20.1 71 3.7 SE 20 30 11 16 1014.7 1014.6 0.8
22/08:00am 24.9 24.6 20.4 76 2.9 SE 22 32 12 17 1014.3 1014.2 0.8
22/07:30am 24.3 24.5 20.6 80 2.4 SE 20 35 11 19 1014.0 1013.9 0.8
22/07:12am 23.8 24.2 20.9 84 1.9 SE 20 32 11 17 1014.0 1013.9 0.8
22/07:00am 23.6 24.2 21.1 86 1.6 SE 19 30 10 16 1014.0 1013.9 0.8
22/06:48am 23.6 24.2 21.1 86 1.6 SSE 19 28 10 15 1014.0 1013.9 0.8
22/06:30am 23.5 24.8 21.6 89 1.3 SSE 17 28 9 15 1013.7 1013.6 0.8
22/06:00am 23.5 25.5 21.6 89 1.3 SE 13 20 7 11 1013.5 1013.4 0.8
22/05:59am 23.5 25.5 21.6 89 1.3 SE 13 20 7 11 1013.5 1013.4 0.8
22/05:49am 23.4 25.6 21.8 91 1.1 SE 13 19 7 10 1013.4 1013.3 0.8
22/05:44am 23.3 25.4 21.7 91 1.1 SE 13 17 7 9 1013.3 1013.2 0.8
22/05:30am 23.2 25.2 21.6 91 1.1 SSE 13 19 7 10 1013.1 1013.0 0.8
22/05:20am 23.3 25.3 21.6 90 1.1 SSE 13 22 7 12 1012.9 1012.8 0.4
22/05:00am 23.7 25.3 21.4 87 1.5 SE 15 26 8 14 1012.6 1012.5 0.2
22/04:42am 23.8 24.9 21.3 86 1.6 SE 17 28 9 15 1012.3 1012.2 0.0
22/04:30am 23.6 24.8 21.5 88 1.4 SE 17 28 9 15 1012.0 1011.9 0.0
22/04:29am 23.6 24.8 21.5 88 1.4 SE 17 28 9 15 1012.0 1011.9 0.0
22/04:26am 23.7 24.9 21.4 87 1.5 SE 17 26 9 14 1012.0 1011.9 0.0
22/04:00am 23.6 25.3 20.9 85 1.8 SSE 13 20 7 11 1011.6 1011.5 0.0
22/03:58am 23.5 25.2 21.0 86 1.6 SSE 13 20 7 11 1011.7 1011.6 0.0
22/03:30am 23.4 24.5 21.3 88 1.4 SE 17 28 9 15 1011.8 1011.7 0.0
22/03:03am 23.3 25.2 21.4 89 1.3 SE 13 28 7 15 1011.6 1011.5 0.0
22/03:00am 23.4 25.9 21.7 90 1.1 SE 11 19 6 10 1011.5 1011.4 0.0
22/02:39am 23.6 25.0 21.1 86 1.6 SSE 15 26 8 14 1011.5 1011.4 0.0
22/02:33am 24.0 25.1 20.5 81 2.3 SE 15 28 8 15 1011.4 1011.3 0.0
22/02:30am 24.0 24.7 20.5 81 2.3 SE 17 28 9 15 1011.4 1011.3 0.0
22/02:29am 24.0 24.7 20.5 81 2.3 SE 17 28 9 15 1011.4 1011.3 0.0
22/02:00am 23.8 23.7 20.7 83 2.0 SSE 22 32 12 17 1011.4 1011.3 0.0
22/01:40am 24.1 24.7 21.0 83 2.0 SSE 19 26 10 14 1011.6 1011.5 0.0
22/01:30am 24.3 25.3 21.0 82 2.2 SSE 17 26 9 14 1011.4 1011.3 0.0
22/01:00am 24.4 24.6 20.5 79 2.5 SSE 20 32 11 17 1011.6 1011.5 0.0
22/12:39am 24.3 24.3 20.2 78 2.7 SSE 20 32 11 17 1011.7 1011.6 0.0
22/12:30am 24.3 23.6 20.2 78 2.7 SSE 24 37 13 20 1011.8 1011.7 0.0
22/12:21am 24.4 24.7 20.7 80 2.4 SSE 20 33 11 18 1011.8 1011.7 0.0
22/12:00am 24.5 24.9 20.6 79 2.5 SSE 19 30 10 16 1011.8 1011.7 0.0
 
Date/Time
EST
Temp
°C
App
Temp
°C
Dew
Point
°C
Rel
Hum
%
Delta-T
°C
Wind Press
QNH
hPa
Press
MSL
hPa
Rain since
9am
mm
Dir  Spd
km/h
Gust
km/h
Spd
kts
Gust
kts
21/11:30pm 25.0 25.8 21.3 80 2.4 SSE 19 28 10 15 1011.9 1011.8 0.0
21/11:15pm 25.3 25.9 21.4 79 2.6 SE 20 35 11 19 1011.8 1011.7 0.0
21/11:00pm 25.3 25.5 21.4 79 2.6 SSE 22 35 12 19 1012.0 1011.9 0.0
21/10:30pm 26.2 27.7 22.7 81 2.4 SE 19 30 10 16 1011.6 1011.5 0.0
21/10:00pm 26.6 28.0 22.9 80 2.5 SE 20 37 11 20 1011.6 1011.5 0.0
21/09:45pm 26.7 28.2 23.0 80 2.5 SE 20 32 11 17 1011.3 1011.2 0.0
21/09:30pm 26.8 28.4 22.8 79 2.7 SE 19 30 10 16 1011.0 1010.9 0.0
21/09:00pm 27.1 29.6 23.1 79 2.7 SE 15 26 8 14 1010.7 1010.6 0.0
21/08:30pm 27.3 28.8 23.1 78 2.9 SE 20 32 11 17 1010.3 1010.2 0.0
21/08:00pm 27.7 31.3 23.1 76 3.1 SSE 9 20 5 11 1009.8 1009.7 0.0
21/07:30pm 27.3 31.2 22.9 77 3.0 S 7 9 4 5 1009.8 1009.7 0.0
21/07:00pm 28.1 31.4 22.6 72 3.7 ESE 9 11 5 6 1009.2 1009.1 0.0
21/06:30pm 28.8 31.9 22.1 67 4.5 ENE 9 13 5 7 1008.3 1008.2 0.0
21/06:00pm 28.8 32.3 22.1 67 4.5 E 7 15 4 8 1008.0 1007.9 0.0
21/05:30pm 28.9 30.5 22.2 67 4.5 N 17 24 9 13 1006.4 1006.3 0.0
21/05:00pm 29.3 31.1 21.8 64 5.1 N 15 22 8 12 1006.2 1006.1 0.0
21/04:30pm 29.7 31.3 21.4 61 5.6 N 15 22 8 12 1005.9 1005.8 0.0
21/04:00pm 29.6 30.3 21.5 61 5.4 N 20 28 11 15 1005.9 1005.8 0.0
21/03:30pm 29.8 30.6 21.7 61 5.5 N 20 30 11 16 1005.9 1005.8 0.0
21/03:00pm 29.4 29.6 21.4 62 5.4 N 22 32 12 17 1006.0 1005.9 0.0
21/02:30pm 30.0 30.3 20.8 57 6.1 N 20 30 11 16 1006.3 1006.2 0.0
21/02:00pm 30.0 29.9 21.4 60 5.8 N 24 35 13 19 1006.7 1006.6 0.0
21/01:30pm 30.2 29.9 22.6 63 5.2 N 28 35 15 19 1006.7 1006.6 0.0
21/01:00pm 30.5 31.2 22.9 64 5.2 N 24 33 13 18 1006.8 1006.7 0.0
21/12:30pm 30.4 31.4 22.8 64 5.2 N 22 33 12 18 1007.1 1007.0 0.0
21/12:00pm 30.3 30.7 22.5 63 5.3 N 24 35 13 19 1007.1 1007.0 0.0
21/11:30am 30.2 29.9 21.8 60 5.7 N 26 35 14 19 1007.5 1007.4 0.0
21/11:00am 30.1 29.9 21.2 59 6.0 NNW 24 33 13 18 1007.5 1007.4 0.0
21/10:30am 30.6 29.7 19.9 52 7.0 N 24 35 13 19 1007.8 1007.7 0.0
21/10:00am 31.4 29.9 19.4 49 7.9 NNW 26 35 14 19 1008.2 1008.1 0.0
21/09:30am 31.7 30.9 20.0 50 7.7 NNW 24 35 13 19 1008.2 1008.1 0.0
21/09:00am 31.0 29.8 20.0 52 7.3 NNW 26 33 14 18 1008.2 1008.1 0.0
21/08:30am 30.1 30.2 20.4 56 6.4 NNW 20 28 11 15 1008.2 1008.1 0.0
21/08:00am 29.8 29.1 19.5 54 6.7 NNW 22 32 12 17 1008.3 1008.2 0.0
21/07:30am 28.7 28.2 19.9 59 5.8 NNW 22 35 12 19 1008.3 1008.2 0.0
21/07:00am 28.0 27.5 20.8 65 4.8 NNW 24 32 13 17 1008.2 1008.1 0.0
21/06:30am 27.6 27.4 21.2 68 4.3 NW 24 32 13 17 1008.0 1007.9 0.0
21/06:00am 27.3 26.7 21.3 69 4.0 NW 26 35 14 19 1007.7 1007.6 0.0
21/05:30am 26.8 27.4 21.3 72 3.7 NW 20 30 11 16 1007.3 1007.2 0.0
21/05:00am 26.6 27.2 21.4 73 3.5 NNW 20 32 11 17 1006.4 1006.3 0.0
21/04:30am 26.3 27.2 21.5 75 3.2 NW 19 26 10 14 1006.5 1006.4 0.0
21/04:00am 27.2 28.1 21.9 73 3.6 WNW 20 35 11 19 1006.3 1006.2 0.0
21/03:30am 27.7 27.9 22.0 71 3.8 NW 24 32 13 17 1006.0 1005.9 0.0
21/03:00am 27.7 26.7 21.3 68 4.3 NNW 28 37 15 20 1005.7 1005.6 0.0
21/02:30am 27.6 27.3 21.9 71 3.8 NNW 26 37 14 20 1005.5 1005.4 0.0
21/02:00am 27.6 27.3 21.9 71 3.8 NNW 26 41 14 22 1006.0 1005.9 0.0
21/01:36am 27.7 26.9 21.7 70 4.0 NNW 28 46 15 25 1005.7 1005.6 0.0
21/01:30am 27.7 27.3 21.7 70 4.0 NNW 26 43 14 23 1005.7 1005.6 0.0
21/01:17am 27.6 26.7 21.4 69 4.1 NNW 28 46 15 25 1005.6 1005.5 0.0
21/01:00am 27.8 26.0 21.1 67 4.5 NNW 32 44 17 24 1005.7 1005.6 0.0
21/12:36am 27.8 26.7 21.1 67 4.4 NNW 28 46 15 25 1005.8 1005.7 0.0
21/12:30am 27.9 26.4 21.0 66 4.6 NNW 30 46 16 25 1005.9 1005.8 0.0
21/12:00am 28.0 26.8 20.8 65 4.8 NNW 28 43 15 23 1006.5 1006.4 0.0
 
Date/Time
EST
Temp
°C
App
Temp
°C
Dew
Point
°C
Rel
Hum
%
Delta-T
°C
Wind Press
QNH
hPa
Press
MSL
hPa
Rain since
9am
mm
Dir  Spd
km/h
Gust
km/h
Spd
kts
Gust
kts
20/11:30pm 28.1 26.7 20.4 63 5.1 NNW 28 43 15 23 1006.7 1006.6 0.0
20/11:00pm 28.3 27.0 19.8 60 5.6 NNW 26 37 14 20 1006.9 1006.8 0.0

Other Formats:

Comma delimited format used in spreadsheet applications
http://www.bom.gov.au/fwo/IDQ60801/IDQ60801.95565.axf

JavaScript Object Notation format (JSON) in row-major order
http://www.bom.gov.au/fwo/IDQ60801/IDQ60801.95565.json